sensor_id;sensor_type;location;lat;lon;timestamp;P1;durP1;ratioP1;P2;durP2;ratioP2
48574;SDS011;34352;51.084;3.712;2023-08-31T00:04:39;4.93;;;2.45;;
48574;SDS011;34352;51.084;3.712;2023-08-31T00:14:11;3.20;;;2.53;;
48574;SDS011;34352;51.084;3.712;2023-08-31T00:19:32;4.25;;;2.10;;
48574;SDS011;34352;51.084;3.712;2023-08-31T00:28:45;5.22;;;2.50;;
48574;SDS011;34352;51.084;3.712;2023-08-31T00:34:35;3.72;;;2.08;;
48574;SDS011;34352;51.084;3.712;2023-08-31T00:40:29;4.95;;;2.40;;
48574;SDS011;34352;51.084;3.712;2023-08-31T00:43:35;5.82;;;3.30;;
48574;SDS011;34352;51.084;3.712;2023-08-31T00:52:02;5.35;;;2.22;;
48574;SDS011;34352;51.084;3.712;2023-08-31T00:54:31;5.93;;;2.60;;
48574;SDS011;34352;51.084;3.712;2023-08-31T00:59:52;3.60;;;2.22;;
48574;SDS011;34352;51.084;3.712;2023-08-31T01:05:47;8.45;;;2.95;;
48574;SDS011;34352;51.084;3.712;2023-08-31T01:18:06;3.60;;;2.60;;
48574;SDS011;34352;51.084;3.712;2023-08-31T01:38:55;4.43;;;2.67;;
48574;SDS011;34352;51.084;3.712;2023-08-31T01:45:07;4.93;;;2.78;;
48574;SDS011;34352;51.084;3.712;2023-08-31T01:53:09;6.03;;;2.63;;
48574;SDS011;34352;51.084;3.712;2023-08-31T01:55:40;6.60;;;2.42;;
48574;SDS011;34352;51.084;3.712;2023-08-31T01:58:23;4.60;;;2.97;;
48574;SDS011;34352;51.084;3.712;2023-08-31T02:00:51;4.53;;;2.60;;
48574;SDS011;34352;51.084;3.712;2023-08-31T02:03:29;3.70;;;2.90;;
48574;SDS011;34352;51.084;3.712;2023-08-31T02:08:38;3.53;;;2.47;;
48574;SDS011;34352;51.084;3.712;2023-08-31T02:11:07;5.15;;;2.53;;
48574;SDS011;34352;51.084;3.712;2023-08-31T02:13:33;4.93;;;2.67;;
48574;SDS011;34352;51.084;3.712;2023-08-31T02:16:12;3.65;;;2.60;;
48574;SDS011;34352;51.084;3.712;2023-08-31T02:18:41;6.60;;;3.63;;
48574;SDS011;34352;51.084;3.712;2023-08-31T02:21:13;5.70;;;2.88;;
48574;SDS011;34352;51.084;3.712;2023-08-31T02:28:52;4.88;;;2.83;;
48574;SDS011;34352;51.084;3.712;2023-08-31T02:46:09;6.50;;;3.55;;
48574;SDS011;34352;51.084;3.712;2023-08-31T02:57:53;5.63;;;3.10;;
48574;SDS011;34352;51.084;3.712;2023-08-31T03:00:26;6.07;;;3.20;;
48574;SDS011;34352;51.084;3.712;2023-08-31T03:03:04;6.13;;;3.30;;
48574;SDS011;34352;51.084;3.712;2023-08-31T03:05:40;6.20;;;3.03;;
48574;SDS011;34352;51.084;3.712;2023-08-31T03:17:18;6.03;;;4.00;;
48574;SDS011;34352;51.084;3.712;2023-08-31T03:19:52;4.82;;;2.83;;
48574;SDS011;34352;51.084;3.712;2023-08-31T03:24:54;5.70;;;3.22;;
48574;SDS011;34352;51.084;3.712;2023-08-31T03:30:30;5.75;;;4.22;;
48574;SDS011;34352;51.084;3.712;2023-08-31T03:36:11;5.63;;;3.30;;
48574;SDS011;34352;51.084;3.712;2023-08-31T03:48:37;6.72;;;3.55;;
48574;SDS011;34352;51.084;3.712;2023-08-31T03:58:10;5.68;;;3.22;;
48574;SDS011;34352;51.084;3.712;2023-08-31T04:04:02;5.25;;;2.88;;
48574;SDS011;34352;51.084;3.712;2023-08-31T04:06:53;4.67;;;2.90;;
48574;SDS011;34352;51.084;3.712;2023-08-31T04:09:26;7.20;;;2.92;;
48574;SDS011;34352;51.084;3.712;2023-08-31T04:11:54;6.50;;;3.53;;
48574;SDS011;34352;51.084;3.712;2023-08-31T04:17:30;6.05;;;3.08;;
48574;SDS011;34352;51.084;3.712;2023-08-31T04:32:23;6.85;;;3.17;;
48574;SDS011;34352;51.084;3.712;2023-08-31T04:35:04;7.03;;;4.50;;
48574;SDS011;34352;51.084;3.712;2023-08-31T04:37:50;11.73;;;4.72;;
48574;SDS011;34352;51.084;3.712;2023-08-31T04:43:38;12.38;;;4.85;;
48574;SDS011;34352;51.084;3.712;2023-08-31T04:49:45;13.27;;;5.30;;
48574;SDS011;34352;51.084;3.712;2023-08-31T04:55:12;9.98;;;5.00;;
48574;SDS011;34352;51.084;3.712;2023-08-31T05:09:15;12.32;;;5.20;;
48574;SDS011;34352;51.084;3.712;2023-08-31T05:11:52;7.95;;;4.85;;
48574;SDS011;34352;51.084;3.712;2023-08-31T05:16:50;9.07;;;4.90;;
48574;SDS011;34352;51.084;3.712;2023-08-31T05:22:19;14.48;;;4.97;;
48574;SDS011;34352;51.084;3.712;2023-08-31T05:24:54;10.40;;;4.75;;
48574;SDS011;34352;51.084;3.712;2023-08-31T05:30:34;10.30;;;4.72;;
48574;SDS011;34352;51.084;3.712;2023-08-31T05:36:19;8.02;;;3.70;;
48574;SDS011;34352;51.084;3.712;2023-08-31T05:47:32;5.80;;;3.08;;
48574;SDS011;34352;51.084;3.712;2023-08-31T05:52:43;4.50;;;3.30;;
48574;SDS011;34352;51.084;3.712;2023-08-31T05:55:21;9.40;;;2.65;;
48574;SDS011;34352;51.084;3.712;2023-08-31T06:03:41;8.02;;;3.50;;
48574;SDS011;34352;51.084;3.712;2023-08-31T06:06:16;5.90;;;2.65;;
48574;SDS011;34352;51.084;3.712;2023-08-31T06:11:41;5.15;;;2.58;;
48574;SDS011;34352;51.084;3.712;2023-08-31T06:14:28;6.37;;;3.47;;
48574;SDS011;34352;51.084;3.712;2023-08-31T06:17:05;7.28;;;2.92;;
48574;SDS011;34352;51.084;3.712;2023-08-31T06:27:32;13.25;;;3.70;;
48574;SDS011;34352;51.084;3.712;2023-08-31T06:40:29;14.63;;;4.95;;
48574;SDS011;34352;51.084;3.712;2023-08-31T06:43:01;12.75;;;5.00;;
48574;SDS011;34352;51.084;3.712;2023-08-31T07:16:55;11.63;;;3.45;;
48574;SDS011;34352;51.084;3.712;2023-08-31T07:22:04;5.13;;;2.90;;
48574;SDS011;34352;51.084;3.712;2023-08-31T07:24:43;5.72;;;3.08;;
48574;SDS011;34352;51.084;3.712;2023-08-31T07:27:19;5.35;;;2.40;;
48574;SDS011;34352;51.084;3.712;2023-08-31T07:29:45;4.70;;;2.55;;
48574;SDS011;34352;51.084;3.712;2023-08-31T07:32:28;5.30;;;2.88;;
48574;SDS011;34352;51.084;3.712;2023-08-31T07:34:55;7.15;;;3.05;;
48574;SDS011;34352;51.084;3.712;2023-08-31T07:42:52;4.47;;;2.67;;
48574;SDS011;34352;51.084;3.712;2023-08-31T07:45:21;5.85;;;2.80;;
48574;SDS011;34352;51.084;3.712;2023-08-31T07:47:53;6.70;;;2.70;;
48574;SDS011;34352;51.084;3.712;2023-08-31T07:50:36;9.25;;;2.60;;
48574;SDS011;34352;51.084;3.712;2023-08-31T07:53:04;6.13;;;2.73;;
48574;SDS011;34352;51.084;3.712;2023-08-31T07:55:36;4.80;;;2.65;;
48574;SDS011;34352;51.084;3.712;2023-08-31T07:58:11;3.85;;;2.75;;
48574;SDS011;34352;51.084;3.712;2023-08-31T08:00:38;8.35;;;3.30;;
48574;SDS011;34352;51.084;3.712;2023-08-31T08:03:04;19.63;;;3.47;;
48574;SDS011;34352;51.084;3.712;2023-08-31T08:05:29;39.85;;;5.43;;
48574;SDS011;34352;51.084;3.712;2023-08-31T08:07:56;9.93;;;2.50;;
48574;SDS011;34352;51.084;3.712;2023-08-31T08:10:29;5.45;;;2.75;;
48574;SDS011;34352;51.084;3.712;2023-08-31T08:13:04;5.63;;;2.60;;
48574;SDS011;34352;51.084;3.712;2023-08-31T08:15:30;3.85;;;2.33;;
48574;SDS011;34352;51.084;3.712;2023-08-31T08:18:01;5.10;;;2.70;;
48574;SDS011;34352;51.084;3.712;2023-08-31T08:23:07;6.32;;;2.55;;
48574;SDS011;34352;51.084;3.712;2023-08-31T08:25:36;5.72;;;3.03;;
48574;SDS011;34352;51.084;3.712;2023-08-31T08:28:02;4.07;;;2.45;;
48574;SDS011;34352;51.084;3.712;2023-08-31T08:30:28;9.35;;;2.47;;
48574;SDS011;34352;51.084;3.712;2023-08-31T08:32:54;8.18;;;3.47;;
48574;SDS011;34352;51.084;3.712;2023-08-31T08:35:23;9.05;;;3.25;;
48574;SDS011;34352;51.084;3.712;2023-08-31T08:37:52;4.55;;;3.10;;
48574;SDS011;34352;51.084;3.712;2023-08-31T08:40:18;5.07;;;3.00;;
48574;SDS011;34352;51.084;3.712;2023-08-31T08:42:51;5.88;;;3.15;;
48574;SDS011;34352;51.084;3.712;2023-08-31T08:45:24;8.50;;;4.07;;
48574;SDS011;34352;51.084;3.712;2023-08-31T08:47:51;6.50;;;3.13;;
48574;SDS011;34352;51.084;3.712;2023-08-31T08:50:23;6.57;;;3.40;;
48574;SDS011;34352;51.084;3.712;2023-08-31T08:52:49;7.40;;;3.08;;
48574;SDS011;34352;51.084;3.712;2023-08-31T08:55:16;11.88;;;3.85;;
48574;SDS011;34352;51.084;3.712;2023-08-31T08:57:43;8.05;;;3.58;;
48574;SDS011;34352;51.084;3.712;2023-08-31T09:00:11;5.88;;;3.30;;
48574;SDS011;34352;51.084;3.712;2023-08-31T09:02:37;6.47;;;3.10;;
48574;SDS011;34352;51.084;3.712;2023-08-31T09:05:03;10.88;;;3.58;;
48574;SDS011;34352;51.084;3.712;2023-08-31T09:07:29;5.55;;;3.45;;
48574;SDS011;34352;51.084;3.712;2023-08-31T09:10:02;6.95;;;3.67;;
48574;SDS011;34352;51.084;3.712;2023-08-31T09:12:37;6.90;;;3.67;;
48574;SDS011;34352;51.084;3.712;2023-08-31T09:15:04;8.25;;;4.25;;
48574;SDS011;34352;51.084;3.712;2023-08-31T09:17:37;7.70;;;4.13;;
48574;SDS011;34352;51.084;3.712;2023-08-31T09:20:06;6.35;;;4.03;;
48574;SDS011;34352;51.084;3.712;2023-08-31T09:22:32;7.13;;;4.10;;
48574;SDS011;34352;51.084;3.712;2023-08-31T09:24:59;7.25;;;4.13;;
48574;SDS011;34352;51.084;3.712;2023-08-31T09:27:24;6.55;;;4.05;;
48574;SDS011;34352;51.084;3.712;2023-08-31T09:29:54;6.38;;;3.80;;
48574;SDS011;34352;51.084;3.712;2023-08-31T09:32:23;5.05;;;3.60;;
48574;SDS011;34352;51.084;3.712;2023-08-31T09:34:49;9.90;;;3.70;;
48574;SDS011;34352;51.084;3.712;2023-08-31T09:37:15;8.25;;;3.58;;
48574;SDS011;34352;51.084;3.712;2023-08-31T09:39:41;8.95;;;3.75;;
48574;SDS011;34352;51.084;3.712;2023-08-31T09:42:13;5.03;;;3.67;;
48574;SDS011;34352;51.084;3.712;2023-08-31T09:44:43;5.90;;;3.22;;
48574;SDS011;34352;51.084;3.712;2023-08-31T09:47:20;5.32;;;2.88;;
48574;SDS011;34352;51.084;3.712;2023-08-31T09:49:56;7.55;;;3.67;;
48574;SDS011;34352;51.084;3.712;2023-08-31T09:55:13;4.82;;;3.05;;
48574;SDS011;34352;51.084;3.712;2023-08-31T10:01:14;4.72;;;2.90;;
48574;SDS011;34352;51.084;3.712;2023-08-31T10:03:41;13.45;;;3.95;;
48574;SDS011;34352;51.084;3.712;2023-08-31T10:06:10;6.93;;;3.20;;
48574;SDS011;34352;51.084;3.712;2023-08-31T10:13:58;4.35;;;2.30;;
48574;SDS011;34352;51.084;3.712;2023-08-31T10:16:25;4.75;;;2.55;;
48574;SDS011;34352;51.084;3.712;2023-08-31T10:18:52;5.18;;;2.80;;
48574;SDS011;34352;51.084;3.712;2023-08-31T10:34:04;5.03;;;2.35;;
48574;SDS011;34352;51.084;3.712;2023-08-31T10:36:53;4.90;;;2.78;;
48574;SDS011;34352;51.084;3.712;2023-08-31T10:42:18;7.28;;;2.55;;
48574;SDS011;34352;51.084;3.712;2023-08-31T10:44:48;4.05;;;2.33;;
48574;SDS011;34352;51.084;3.712;2023-08-31T10:50:17;2.85;;;1.92;;
48574;SDS011;34352;51.084;3.712;2023-08-31T10:52:45;7.88;;;2.10;;
48574;SDS011;34352;51.084;3.712;2023-08-31T10:55:12;4.25;;;2.47;;
48574;SDS011;34352;51.084;3.712;2023-08-31T10:57:56;5.03;;;2.70;;
48574;SDS011;34352;51.084;3.712;2023-08-31T11:03:19;2.60;;;2.03;;
48574;SDS011;34352;51.084;3.712;2023-08-31T11:05:52;3.90;;;2.40;;
48574;SDS011;34352;51.084;3.712;2023-08-31T11:08:25;4.32;;;2.35;;
48574;SDS011;34352;51.084;3.712;2023-08-31T11:10:52;3.85;;;2.13;;
48574;SDS011;34352;51.084;3.712;2023-08-31T11:13:26;4.40;;;1.90;;
48574;SDS011;34352;51.084;3.712;2023-08-31T11:15:52;4.93;;;2.05;;
48574;SDS011;34352;51.084;3.712;2023-08-31T11:18:19;2.95;;;1.98;;
48574;SDS011;34352;51.084;3.712;2023-08-31T11:20:46;5.05;;;2.47;;
48574;SDS011;34352;51.084;3.712;2023-08-31T11:23:13;5.70;;;2.20;;
48574;SDS011;34352;51.084;3.712;2023-08-31T11:25:40;6.07;;;2.60;;
48574;SDS011;34352;51.084;3.712;2023-08-31T11:28:08;5.32;;;2.42;;
48574;SDS011;34352;51.084;3.712;2023-08-31T11:30:34;6.28;;;2.53;;
48574;SDS011;34352;51.084;3.712;2023-08-31T11:33:03;5.07;;;2.70;;
48574;SDS011;34352;51.084;3.712;2023-08-31T11:35:48;6.57;;;2.53;;
48574;SDS011;34352;51.084;3.712;2023-08-31T11:38:17;4.10;;;2.40;;
48574;SDS011;34352;51.084;3.712;2023-08-31T11:40:43;3.92;;;1.90;;
48574;SDS011;34352;51.084;3.712;2023-08-31T11:43:23;5.60;;;2.50;;
48574;SDS011;34352;51.084;3.712;2023-08-31T11:49:12;5.18;;;2.28;;
48574;SDS011;34352;51.084;3.712;2023-08-31T11:54:05;4.30;;;2.10;;
48574;SDS011;34352;51.084;3.712;2023-08-31T11:56:40;4.20;;;2.20;;
48574;SDS011;34352;51.084;3.712;2023-08-31T11:59:12;4.32;;;1.85;;
48574;SDS011;34352;51.084;3.712;2023-08-31T12:01:42;4.85;;;2.28;;
48574;SDS011;34352;51.084;3.712;2023-08-31T12:04:14;4.07;;;2.05;;
48574;SDS011;34352;51.084;3.712;2023-08-31T12:06:49;5.23;;;1.87;;
48574;SDS011;34352;51.084;3.712;2023-08-31T12:09:19;3.53;;;2.03;;
48574;SDS011;34352;51.084;3.712;2023-08-31T12:11:53;4.43;;;2.15;;
48574;SDS011;34352;51.084;3.712;2023-08-31T12:14:27;3.55;;;2.00;;
48574;SDS011;34352;51.084;3.712;2023-08-31T12:17:00;3.97;;;1.83;;
48574;SDS011;34352;51.084;3.712;2023-08-31T12:19:33;2.30;;;2.00;;
48574;SDS011;34352;51.084;3.712;2023-08-31T12:22:02;3.90;;;1.50;;
48574;SDS011;34352;51.084;3.712;2023-08-31T12:24:29;4.28;;;1.70;;
48574;SDS011;34352;51.084;3.712;2023-08-31T12:27:03;2.97;;;1.50;;
48574;SDS011;34352;51.084;3.712;2023-08-31T12:29:38;4.18;;;1.67;;
48574;SDS011;34352;51.084;3.712;2023-08-31T12:32:06;2.25;;;1.40;;
48574;SDS011;34352;51.084;3.712;2023-08-31T12:34:38;5.28;;;1.77;;
48574;SDS011;34352;51.084;3.712;2023-08-31T12:37:05;3.45;;;1.60;;
48574;SDS011;34352;51.084;3.712;2023-08-31T12:39:32;4.40;;;1.45;;
48574;SDS011;34352;51.084;3.712;2023-08-31T12:41:58;4.47;;;1.70;;
48574;SDS011;34352;51.084;3.712;2023-08-31T12:44:25;4.45;;;1.60;;
48574;SDS011;34352;51.084;3.712;2023-08-31T12:46:51;2.80;;;1.40;;
48574;SDS011;34352;51.084;3.712;2023-08-31T12:49:17;3.88;;;1.50;;
48574;SDS011;34352;51.084;3.712;2023-08-31T12:51:46;4.07;;;1.40;;
48574;SDS011;34352;51.084;3.712;2023-08-31T12:54:20;2.58;;;1.40;;
48574;SDS011;34352;51.084;3.712;2023-08-31T12:59:12;5.22;;;1.52;;
48574;SDS011;34352;51.084;3.712;2023-08-31T13:01:38;2.90;;;1.40;;
48574;SDS011;34352;51.084;3.712;2023-08-31T13:04:04;7.82;;;2.03;;
48574;SDS011;34352;51.084;3.712;2023-08-31T13:06:31;2.78;;;1.33;;
48574;SDS011;34352;51.084;3.712;2023-08-31T13:08:58;2.42;;;1.70;;
48574;SDS011;34352;51.084;3.712;2023-08-31T13:11:31;2.85;;;1.42;;
48574;SDS011;34352;51.084;3.712;2023-08-31T13:13:56;4.35;;;1.52;;
48574;SDS011;34352;51.084;3.712;2023-08-31T13:16:22;3.00;;;1.40;;
48574;SDS011;34352;51.084;3.712;2023-08-31T13:18:50;1.85;;;1.23;;
48574;SDS011;34352;51.084;3.712;2023-08-31T13:21:16;4.15;;;1.48;;
48574;SDS011;34352;51.084;3.712;2023-08-31T13:23:43;3.67;;;1.38;;
48574;SDS011;34352;51.084;3.712;2023-08-31T13:26:10;3.15;;;1.50;;
48574;SDS011;34352;51.084;3.712;2023-08-31T13:28:41;3.20;;;1.38;;
48574;SDS011;34352;51.084;3.712;2023-08-31T13:31:10;4.30;;;1.70;;
48574;SDS011;34352;51.084;3.712;2023-08-31T13:33:37;2.00;;;1.27;;
48574;SDS011;34352;51.084;3.712;2023-08-31T13:36:02;4.15;;;1.65;;
48574;SDS011;34352;51.084;3.712;2023-08-31T13:41:09;2.58;;;1.60;;
48574;SDS011;34352;51.084;3.712;2023-08-31T13:43:38;6.68;;;1.45;;
48574;SDS011;34352;51.084;3.712;2023-08-31T13:46:05;3.78;;;1.70;;
48574;SDS011;34352;51.084;3.712;2023-08-31T13:48:33;3.25;;;1.85;;
48574;SDS011;34352;51.084;3.712;2023-08-31T13:51:00;5.78;;;1.63;;
48574;SDS011;34352;51.084;3.712;2023-08-31T13:53:26;7.25;;;1.75;;
48574;SDS011;34352;51.084;3.712;2023-08-31T13:58:23;3.90;;;1.63;;
48574;SDS011;34352;51.084;3.712;2023-08-31T14:00:49;4.03;;;1.73;;
48574;SDS011;34352;51.084;3.712;2023-08-31T14:03:19;4.63;;;1.70;;
48574;SDS011;34352;51.084;3.712;2023-08-31T14:05:50;4.13;;;1.77;;
48574;SDS011;34352;51.084;3.712;2023-08-31T14:08:17;5.20;;;1.90;;
48574;SDS011;34352;51.084;3.712;2023-08-31T14:13:14;5.97;;;1.67;;
48574;SDS011;34352;51.084;3.712;2023-08-31T14:18:12;3.88;;;1.70;;
48574;SDS011;34352;51.084;3.712;2023-08-31T14:20:51;4.05;;;1.67;;
48574;SDS011;34352;51.084;3.712;2023-08-31T14:23:16;4.95;;;2.13;;
48574;SDS011;34352;51.084;3.712;2023-08-31T14:28:36;5.47;;;2.35;;
48574;SDS011;34352;51.084;3.712;2023-08-31T14:31:12;4.30;;;2.15;;
48574;SDS011;34352;51.084;3.712;2023-08-31T14:33:37;5.03;;;2.17;;
48574;SDS011;34352;51.084;3.712;2023-08-31T14:36:04;6.85;;;2.38;;
48574;SDS011;34352;51.084;3.712;2023-08-31T14:38:31;2.92;;;2.10;;
48574;SDS011;34352;51.084;3.712;2023-08-31T14:41:08;7.53;;;2.10;;
48574;SDS011;34352;51.084;3.712;2023-08-31T14:43:35;4.72;;;2.33;;
48574;SDS011;34352;51.084;3.712;2023-08-31T14:46:04;6.43;;;2.22;;
48574;SDS011;34352;51.084;3.712;2023-08-31T14:48:30;7.50;;;2.53;;
48574;SDS011;34352;51.084;3.712;2023-08-31T14:51:01;7.65;;;2.35;;
48574;SDS011;34352;51.084;3.712;2023-08-31T14:53:26;4.28;;;2.25;;
48574;SDS011;34352;51.084;3.712;2023-08-31T14:55:55;6.57;;;2.33;;
48574;SDS011;34352;51.084;3.712;2023-08-31T14:58:21;4.95;;;2.42;;
48574;SDS011;34352;51.084;3.712;2023-08-31T15:00:48;4.35;;;2.30;;
48574;SDS011;34352;51.084;3.712;2023-08-31T15:03:14;4.00;;;2.47;;
48574;SDS011;34352;51.084;3.712;2023-08-31T15:05:41;6.30;;;2.35;;
48574;SDS011;34352;51.084;3.712;2023-08-31T15:08:07;6.10;;;2.33;;
48574;SDS011;34352;51.084;3.712;2023-08-31T15:10:33;5.30;;;2.53;;
48574;SDS011;34352;51.084;3.712;2023-08-31T15:15:29;6.18;;;2.38;;
48574;SDS011;34352;51.084;3.712;2023-08-31T15:17:56;6.82;;;2.97;;
48574;SDS011;34352;51.084;3.712;2023-08-31T15:20:22;6.85;;;2.50;;
48574;SDS011;34352;51.084;3.712;2023-08-31T15:22:49;3.90;;;2.22;;
48574;SDS011;34352;51.084;3.712;2023-08-31T15:25:16;4.60;;;2.40;;
48574;SDS011;34352;51.084;3.712;2023-08-31T15:27:42;8.73;;;3.08;;
48574;SDS011;34352;51.084;3.712;2023-08-31T15:30:09;6.68;;;2.50;;
48574;SDS011;34352;51.084;3.712;2023-08-31T15:32:35;5.35;;;2.30;;
48574;SDS011;34352;51.084;3.712;2023-08-31T15:35:02;12.13;;;2.53;;
48574;SDS011;34352;51.084;3.712;2023-08-31T15:37:34;7.57;;;1.70;;
48574;SDS011;34352;51.084;3.712;2023-08-31T15:40:00;5.47;;;1.75;;
48574;SDS011;34352;51.084;3.712;2023-08-31T15:42:26;4.95;;;1.90;;
48574;SDS011;34352;51.084;3.712;2023-08-31T15:44:52;3.20;;;1.83;;
48574;SDS011;34352;51.084;3.712;2023-08-31T15:47:20;3.40;;;1.70;;
48574;SDS011;34352;51.084;3.712;2023-08-31T15:49:49;4.90;;;2.13;;
48574;SDS011;34352;51.084;3.712;2023-08-31T15:52:17;5.00;;;2.47;;
48574;SDS011;34352;51.084;3.712;2023-08-31T15:54:43;4.72;;;1.83;;
48574;SDS011;34352;51.084;3.712;2023-08-31T15:57:09;2.42;;;1.40;;
48574;SDS011;34352;51.084;3.712;2023-08-31T15:59:42;11.15;;;1.92;;
48574;SDS011;34352;51.084;3.712;2023-08-31T16:02:18;8.93;;;2.10;;
48574;SDS011;34352;51.084;3.712;2023-08-31T16:04:44;1.98;;;1.55;;
48574;SDS011;34352;51.084;3.712;2023-08-31T16:07:19;1.50;;;1.20;;
48574;SDS011;34352;51.084;3.712;2023-08-31T16:09:59;5.03;;;1.73;;
48574;SDS011;34352;51.084;3.712;2023-08-31T16:12:26;2.67;;;1.42;;
48574;SDS011;34352;51.084;3.712;2023-08-31T16:14:58;5.30;;;2.35;;
48574;SDS011;34352;51.084;3.712;2023-08-31T16:17:24;2.38;;;1.45;;
48574;SDS011;34352;51.084;3.712;2023-08-31T16:20:04;3.58;;;1.73;;
48574;SDS011;34352;51.084;3.712;2023-08-31T16:22:32;2.35;;;1.83;;
48574;SDS011;34352;51.084;3.712;2023-08-31T16:25:00;2.58;;;1.60;;
48574;SDS011;34352;51.084;3.712;2023-08-31T16:27:36;6.50;;;2.42;;
48574;SDS011;34352;51.084;3.712;2023-08-31T16:30:17;3.45;;;1.60;;
48574;SDS011;34352;51.084;3.712;2023-08-31T16:32:48;5.03;;;1.80;;
48574;SDS011;34352;51.084;3.712;2023-08-31T16:35:20;4.60;;;1.73;;
48574;SDS011;34352;51.084;3.712;2023-08-31T16:37:54;3.35;;;2.10;;
48574;SDS011;34352;51.084;3.712;2023-08-31T16:40:25;3.90;;;1.92;;
48574;SDS011;34352;51.084;3.712;2023-08-31T16:42:51;6.20;;;2.95;;
48574;SDS011;34352;51.084;3.712;2023-08-31T16:45:16;7.65;;;2.42;;
48574;SDS011;34352;51.084;3.712;2023-08-31T16:47:42;2.95;;;2.20;;
48574;SDS011;34352;51.084;3.712;2023-08-31T16:50:09;3.97;;;2.33;;
48574;SDS011;34352;51.084;3.712;2023-08-31T16:52:37;6.55;;;2.42;;
48574;SDS011;34352;51.084;3.712;2023-08-31T16:55:03;5.03;;;2.33;;
48574;SDS011;34352;51.084;3.712;2023-08-31T16:57:34;2.85;;;2.10;;
48574;SDS011;34352;51.084;3.712;2023-08-31T17:00:00;2.83;;;1.95;;
48574;SDS011;34352;51.084;3.712;2023-08-31T17:02:27;3.92;;;2.33;;
48574;SDS011;34352;51.084;3.712;2023-08-31T17:04:55;9.57;;;2.95;;
48574;SDS011;34352;51.084;3.712;2023-08-31T17:07:21;3.05;;;1.92;;
48574;SDS011;34352;51.084;3.712;2023-08-31T17:09:48;3.53;;;1.80;;
48574;SDS011;34352;51.084;3.712;2023-08-31T17:12:14;4.72;;;2.05;;
48574;SDS011;34352;51.084;3.712;2023-08-31T17:14:42;11.23;;;2.78;;
48574;SDS011;34352;51.084;3.712;2023-08-31T17:17:11;5.95;;;2.08;;
48574;SDS011;34352;51.084;3.712;2023-08-31T17:19:36;3.90;;;1.83;;
48574;SDS011;34352;51.084;3.712;2023-08-31T17:22:02;7.63;;;1.77;;
48574;SDS011;34352;51.084;3.712;2023-08-31T17:24:30;7.32;;;1.88;;
48574;SDS011;34352;51.084;3.712;2023-08-31T17:26:56;3.83;;;1.67;;
48574;SDS011;34352;51.084;3.712;2023-08-31T17:29:22;6.55;;;2.42;;
48574;SDS011;34352;51.084;3.712;2023-08-31T17:31:48;3.88;;;1.60;;
48574;SDS011;34352;51.084;3.712;2023-08-31T17:34:16;4.85;;;1.55;;
48574;SDS011;34352;51.084;3.712;2023-08-31T17:36:45;1.45;;;1.20;;
48574;SDS011;34352;51.084;3.712;2023-08-31T17:39:11;8.10;;;2.35;;
48574;SDS011;34352;51.084;3.712;2023-08-31T17:41:38;1.70;;;1.20;;
48574;SDS011;34352;51.084;3.712;2023-08-31T17:44:04;2.85;;;1.35;;
48574;SDS011;34352;51.084;3.712;2023-08-31T17:46:30;4.05;;;1.83;;
48574;SDS011;34352;51.084;3.712;2023-08-31T17:48:58;4.13;;;1.98;;
48574;SDS011;34352;51.084;3.712;2023-08-31T17:51:24;5.85;;;1.70;;
48574;SDS011;34352;51.084;3.712;2023-08-31T17:53:50;4.35;;;1.83;;
48574;SDS011;34352;51.084;3.712;2023-08-31T17:56:21;3.10;;;1.58;;
48574;SDS011;34352;51.084;3.712;2023-08-31T17:58:48;6.18;;;1.55;;
48574;SDS011;34352;51.084;3.712;2023-08-31T18:01:16;1.50;;;1.20;;
48574;SDS011;34352;51.084;3.712;2023-08-31T18:03:44;4.57;;;1.70;;
48574;SDS011;34352;51.084;3.712;2023-08-31T18:06:11;4.13;;;1.52;;
48574;SDS011;34352;51.084;3.712;2023-08-31T18:08:45;3.42;;;1.33;;
48574;SDS011;34352;51.084;3.712;2023-08-31T18:11:13;3.40;;;1.70;;
48574;SDS011;34352;51.084;3.712;2023-08-31T18:13:41;4.38;;;1.80;;
48574;SDS011;34352;51.084;3.712;2023-08-31T18:16:07;3.70;;;1.75;;
48574;SDS011;34352;51.084;3.712;2023-08-31T18:18:42;3.55;;;1.63;;
48574;SDS011;34352;51.084;3.712;2023-08-31T18:21:08;2.58;;;1.17;;
48574;SDS011;34352;51.084;3.712;2023-08-31T18:23:34;4.30;;;1.50;;
48574;SDS011;34352;51.084;3.712;2023-08-31T18:26:02;3.13;;;1.48;;
48574;SDS011;34352;51.084;3.712;2023-08-31T18:28:28;1.88;;;1.35;;
48574;SDS011;34352;51.084;3.712;2023-08-31T18:30:55;5.28;;;1.95;;
48574;SDS011;34352;51.084;3.712;2023-08-31T18:33:25;3.45;;;1.25;;
48574;SDS011;34352;51.084;3.712;2023-08-31T18:35:53;5.43;;;1.58;;
48574;SDS011;34352;51.084;3.712;2023-08-31T18:38:21;3.28;;;1.30;;
48574;SDS011;34352;51.084;3.712;2023-08-31T18:40:52;3.95;;;1.77;;
48574;SDS011;34352;51.084;3.712;2023-08-31T18:43:23;3.97;;;1.73;;
48574;SDS011;34352;51.084;3.712;2023-08-31T18:46:01;4.75;;;2.15;;
48574;SDS011;34352;51.084;3.712;2023-08-31T18:48:27;4.22;;;1.63;;
48574;SDS011;34352;51.084;3.712;2023-08-31T18:50:58;2.60;;;1.50;;
48574;SDS011;34352;51.084;3.712;2023-08-31T18:53:26;3.30;;;1.45;;
48574;SDS011;34352;51.084;3.712;2023-08-31T18:55:58;5.63;;;1.83;;
48574;SDS011;34352;51.084;3.712;2023-08-31T18:58:27;1.88;;;1.50;;
48574;SDS011;34352;51.084;3.712;2023-08-31T19:00:54;4.55;;;1.73;;
48574;SDS011;34352;51.084;3.712;2023-08-31T19:05:53;3.92;;;1.60;;
48574;SDS011;34352;51.084;3.712;2023-08-31T19:08:20;3.80;;;1.63;;
48574;SDS011;34352;51.084;3.712;2023-08-31T19:10:46;3.60;;;1.80;;
48574;SDS011;34352;51.084;3.712;2023-08-31T19:13:12;3.15;;;1.42;;
48574;SDS011;34352;51.084;3.712;2023-08-31T19:15:38;4.40;;;1.60;;
48574;SDS011;34352;51.084;3.712;2023-08-31T19:18:04;6.05;;;1.98;;
48574;SDS011;34352;51.084;3.712;2023-08-31T19:20:33;4.82;;;1.90;;
48574;SDS011;34352;51.084;3.712;2023-08-31T19:22:59;4.50;;;1.65;;
48574;SDS011;34352;51.084;3.712;2023-08-31T19:25:25;5.22;;;1.80;;
48574;SDS011;34352;51.084;3.712;2023-08-31T19:28:01;2.60;;;1.75;;
48574;SDS011;34352;51.084;3.712;2023-08-31T19:30:29;3.83;;;1.85;;
48574;SDS011;34352;51.084;3.712;2023-08-31T19:32:58;5.45;;;2.45;;
48574;SDS011;34352;51.084;3.712;2023-08-31T19:35:26;2.95;;;1.55;;
48574;SDS011;34352;51.084;3.712;2023-08-31T19:37:52;2.55;;;1.15;;
48574;SDS011;34352;51.084;3.712;2023-08-31T19:40:20;3.95;;;1.63;;
48574;SDS011;34352;51.084;3.712;2023-08-31T19:42:47;1.73;;;1.17;;
48574;SDS011;34352;51.084;3.712;2023-08-31T19:45:15;3.28;;;1.63;;
48574;SDS011;34352;51.084;3.712;2023-08-31T19:47:45;2.85;;;1.55;;
48574;SDS011;34352;51.084;3.712;2023-08-31T19:50:17;4.10;;;1.63;;
48574;SDS011;34352;51.084;3.712;2023-08-31T19:52:44;1.50;;;1.30;;
48574;SDS011;34352;51.084;3.712;2023-08-31T19:55:13;4.20;;;1.88;;
48574;SDS011;34352;51.084;3.712;2023-08-31T19:57:39;3.17;;;1.83;;
48574;SDS011;34352;51.084;3.712;2023-08-31T20:00:05;3.55;;;2.00;;
48574;SDS011;34352;51.084;3.712;2023-08-31T20:02:32;3.55;;;1.58;;
48574;SDS011;34352;51.084;3.712;2023-08-31T20:07:49;3.25;;;1.80;;
48574;SDS011;34352;51.084;3.712;2023-08-31T20:10:18;4.47;;;2.28;;
48574;SDS011;34352;51.084;3.712;2023-08-31T20:12:54;6.40;;;2.10;;
48574;SDS011;34352;51.084;3.712;2023-08-31T20:15:27;3.38;;;1.70;;
48574;SDS011;34352;51.084;3.712;2023-08-31T20:23:56;3.08;;;1.67;;
48574;SDS011;34352;51.084;3.712;2023-08-31T20:26:23;3.17;;;1.63;;
48574;SDS011;34352;51.084;3.712;2023-08-31T20:28:50;6.65;;;2.15;;
48574;SDS011;34352;51.084;3.712;2023-08-31T20:31:18;3.80;;;1.73;;
48574;SDS011;34352;51.084;3.712;2023-08-31T20:43:00;2.22;;;1.60;;
48574;SDS011;34352;51.084;3.712;2023-08-31T20:45:26;3.85;;;1.90;;
48574;SDS011;34352;51.084;3.712;2023-08-31T20:51:03;3.95;;;2.25;;
48574;SDS011;34352;51.084;3.712;2023-08-31T20:53:38;3.83;;;2.03;;
48574;SDS011;34352;51.084;3.712;2023-08-31T20:59:06;3.47;;;2.20;;
48574;SDS011;34352;51.084;3.712;2023-08-31T21:04:07;4.00;;;2.40;;